sensor_id;sensor_type;location;lat;lon;timestamp;pressure;altitude;pressure_sealevel;temperature;humidity
52653;BME280;39353;42.864;12.014;2022-10-31T00:01:31;98161.89;;;22.71;54.37
52653;BME280;39353;42.864;12.014;2022-10-31T00:03:59;98160.17;;;22.69;54.40
52653;BME280;39353;42.864;12.014;2022-10-31T00:06:27;98160.89;;;22.67;54.40
52653;BME280;39353;42.864;12.014;2022-10-31T00:09:09;98159.44;;;22.66;54.59
52653;BME280;39353;42.864;12.014;2022-10-31T00:11:51;98161.13;;;22.66;54.62
52653;BME280;39353;42.864;12.014;2022-10-31T00:14:18;98162.73;;;22.65;54.58
52653;BME280;39353;42.864;12.014;2022-10-31T00:17:02;98166.74;;;22.64;54.47
52653;BME280;39353;42.864;12.014;2022-10-31T00:19:29;98160.95;;;22.62;54.58
52653;BME280;39353;42.864;12.014;2022-10-31T00:22:11;98161.69;;;22.61;54.57
52653;BME280;39353;42.864;12.014;2022-10-31T00:24:39;98165.13;;;22.59;54.70
52653;BME280;39353;42.864;12.014;2022-10-31T00:27:06;98169.60;;;22.59;54.64
52653;BME280;39353;42.864;12.014;2022-10-31T00:29:47;98166.66;;;22.58;54.58
52653;BME280;39353;42.864;12.014;2022-10-31T00:32:29;98166.62;;;22.57;54.61
52653;BME280;39353;42.864;12.014;2022-10-31T00:35:12;98164.95;;;22.56;54.57
52653;BME280;39353;42.864;12.014;2022-10-31T00:37:40;98164.27;;;22.55;54.71
52653;BME280;39353;42.864;12.014;2022-10-31T00:40:07;98167.52;;;22.55;54.78
52653;BME280;39353;42.864;12.014;2022-10-31T00:42:36;98163.11;;;22.54;54.69
52653;BME280;39353;42.864;12.014;2022-10-31T00:45:04;98159.12;;;22.52;54.82
52653;BME280;39353;42.864;12.014;2022-10-31T00:47:31;98163.33;;;22.52;54.85
52653;BME280;39353;42.864;12.014;2022-10-31T00:49:58;98162.95;;;22.52;54.74
52653;BME280;39353;42.864;12.014;2022-10-31T00:52:39;98160.19;;;22.51;54.85
52653;BME280;39353;42.864;12.014;2022-10-31T00:55:07;98161.54;;;22.51;54.85
52653;BME280;39353;42.864;12.014;2022-10-31T00:57:34;98162.27;;;22.51;54.91
52653;BME280;39353;42.864;12.014;2022-10-31T01:00:04;98162.89;;;22.50;55.02
52653;BME280;39353;42.864;12.014;2022-10-31T01:02:31;98161.71;;;22.49;55.09
52653;BME280;39353;42.864;12.014;2022-10-31T01:04:59;98159.35;;;22.49;54.79
52653;BME280;39353;42.864;12.014;2022-10-31T01:07:41;98155.38;;;22.47;54.86
52653;BME280;39353;42.864;12.014;2022-10-31T01:10:10;98153.14;;;22.46;54.83
52653;BME280;39353;42.864;12.014;2022-10-31T01:12:49;98154.96;;;22.47;55.00
52653;BME280;39353;42.864;12.014;2022-10-31T01:15:21;98153.52;;;22.46;54.96
52653;BME280;39353;42.864;12.014;2022-10-31T01:17:50;98156.68;;;22.46;55.01
52653;BME280;39353;42.864;12.014;2022-10-31T01:20:20;98156.52;;;22.46;55.08
52653;BME280;39353;42.864;12.014;2022-10-31T01:22:48;98155.34;;;22.45;54.91
52653;BME280;39353;42.864;12.014;2022-10-31T01:25:14;98154.84;;;22.45;55.01
52653;BME280;39353;42.864;12.014;2022-10-31T01:27:42;98154.67;;;22.45;54.99
52653;BME280;39353;42.864;12.014;2022-10-31T01:30:10;98152.48;;;22.45;54.90
52653;BME280;39353;42.864;12.014;2022-10-31T01:32:51;98150.04;;;22.44;54.98
52653;BME280;39353;42.864;12.014;2022-10-31T01:35:18;98150.48;;;22.43;55.02
52653;BME280;39353;42.864;12.014;2022-10-31T01:37:45;98150.23;;;22.42;55.10
52653;BME280;39353;42.864;12.014;2022-10-31T01:40:15;98152.61;;;22.41;55.08
52653;BME280;39353;42.864;12.014;2022-10-31T01:42:43;98156.98;;;22.41;55.13
52653;BME280;39353;42.864;12.014;2022-10-31T01:45:12;98158.82;;;22.41;55.09
52653;BME280;39353;42.864;12.014;2022-10-31T01:47:58;98155.46;;;22.40;55.14
52653;BME280;39353;42.864;12.014;2022-10-31T01:50:35;98154.08;;;22.40;55.11
52653;BME280;39353;42.864;12.014;2022-10-31T01:53:19;98151.94;;;22.39;55.20
52653;BME280;39353;42.864;12.014;2022-10-31T01:56:02;98147.64;;;22.39;55.12
52653;BME280;39353;42.864;12.014;2022-10-31T01:58:31;98147.89;;;22.39;55.24
52653;BME280;39353;42.864;12.014;2022-10-31T02:01:16;98148.32;;;22.39;55.21
52653;BME280;39353;42.864;12.014;2022-10-31T02:03:58;98147.14;;;22.39;55.25
52653;BME280;39353;42.864;12.014;2022-10-31T02:09:29;98143.67;;;22.37;55.23
52653;BME280;39353;42.864;12.014;2022-10-31T02:12:12;98139.02;;;22.37;55.35
52653;BME280;39353;42.864;12.014;2022-10-31T02:14:42;98143.73;;;22.37;55.26
52653;BME280;39353;42.864;12.014;2022-10-31T02:17:10;98142.41;;;22.37;55.25
52653;BME280;39353;42.864;12.014;2022-10-31T02:20:05;98142.42;;;22.37;55.17
52653;BME280;39353;42.864;12.014;2022-10-31T02:31:41;98135.93;;;22.37;55.15
52653;BME280;39353;42.864;12.014;2022-10-31T02:34:47;98135.61;;;22.36;55.28
52653;BME280;39353;42.864;12.014;2022-10-31T02:38:04;98137.58;;;22.37;55.32
52653;BME280;39353;42.864;12.014;2022-10-31T02:45:00;98133.84;;;22.36;55.32
52653;BME280;39353;42.864;12.014;2022-10-31T02:47:32;98130.15;;;22.36;55.10
52653;BME280;39353;42.864;12.014;2022-10-31T02:50:22;98133.75;;;22.36;55.21
52653;BME280;39353;42.864;12.014;2022-10-31T02:53:04;98135.20;;;22.36;55.26
52653;BME280;39353;42.864;12.014;2022-10-31T02:58:18;98137.09;;;22.35;55.38
52653;BME280;39353;42.864;12.014;2022-10-31T03:01:05;98139.87;;;22.35;55.33
52653;BME280;39353;42.864;12.014;2022-10-31T03:03:59;98139.73;;;22.34;55.28
52653;BME280;39353;42.864;12.014;2022-10-31T03:07:15;98138.14;;;22.34;55.33
52653;BME280;39353;42.864;12.014;2022-10-31T03:09:38;98136.93;;;22.33;55.20
52653;BME280;39353;42.864;12.014;2022-10-31T03:15:27;98138.77;;;22.33;55.41
52653;BME280;39353;42.864;12.014;2022-10-31T03:18:26;98142.27;;;22.33;55.33
52653;BME280;39353;42.864;12.014;2022-10-31T03:21:06;98143.79;;;22.33;55.36
52653;BME280;39353;42.864;12.014;2022-10-31T03:23:37;98146.20;;;22.31;55.31
52653;BME280;39353;42.864;12.014;2022-10-31T03:26:09;98145.14;;;22.31;55.43
52653;BME280;39353;42.864;12.014;2022-10-31T03:29:01;98145.14;;;22.31;55.40
52653;BME280;39353;42.864;12.014;2022-10-31T03:31:57;98145.40;;;22.30;55.27
52653;BME280;39353;42.864;12.014;2022-10-31T03:34:29;98149.23;;;22.30;55.33
52653;BME280;39353;42.864;12.014;2022-10-31T03:37:01;98149.95;;;22.30;55.25
52653;BME280;39353;42.864;12.014;2022-10-31T03:39:32;98148.90;;;22.30;55.43
52653;BME280;39353;42.864;12.014;2022-10-31T03:42:20;98150.70;;;22.30;55.47
52653;BME280;39353;42.864;12.014;2022-10-31T03:44:59;98152.60;;;22.30;55.33
52653;BME280;39353;42.864;12.014;2022-10-31T03:47:29;98152.59;;;22.29;55.52
52653;BME280;39353;42.864;12.014;2022-10-31T03:49:57;98155.66;;;22.30;55.48
52653;BME280;39353;42.864;12.014;2022-10-31T03:52:37;98157.69;;;22.30;55.37
52653;BME280;39353;42.864;12.014;2022-10-31T03:55:30;98159.83;;;22.29;55.40
52653;BME280;39353;42.864;12.014;2022-10-31T03:58:24;98159.33;;;22.28;55.56
52653;BME280;39353;42.864;12.014;2022-10-31T04:01:11;98160.42;;;22.28;55.44
52653;BME280;39353;42.864;12.014;2022-10-31T04:03:42;98165.47;;;22.28;55.56
52653;BME280;39353;42.864;12.014;2022-10-31T04:06:14;98162.52;;;22.26;55.36
52653;BME280;39353;42.864;12.014;2022-10-31T04:09:02;98158.89;;;22.25;55.47
52653;BME280;39353;42.864;12.014;2022-10-31T04:11:51;98162.20;;;22.25;55.58
52653;BME280;39353;42.864;12.014;2022-10-31T04:15:27;98164.40;;;22.25;55.41
52653;BME280;39353;42.864;12.014;2022-10-31T04:18:09;98165.28;;;22.25;55.45
52653;BME280;39353;42.864;12.014;2022-10-31T04:20:40;98166.38;;;22.25;55.51
52653;BME280;39353;42.864;12.014;2022-10-31T04:23:28;98165.03;;;22.24;55.54
52653;BME280;39353;42.864;12.014;2022-10-31T04:26:12;98166.26;;;22.23;55.53
52653;BME280;39353;42.864;12.014;2022-10-31T04:28:53;98162.39;;;22.24;55.60
52653;BME280;39353;42.864;12.014;2022-10-31T04:31:34;98164.36;;;22.24;55.56
52653;BME280;39353;42.864;12.014;2022-10-31T04:34:02;98166.17;;;22.24;55.53
52653;BME280;39353;42.864;12.014;2022-10-31T04:36:29;98169.45;;;22.24;55.53
52653;BME280;39353;42.864;12.014;2022-10-31T04:38:58;98169.28;;;22.24;55.44
52653;BME280;39353;42.864;12.014;2022-10-31T04:42:18;98166.85;;;22.23;55.57
52653;BME280;39353;42.864;12.014;2022-10-31T04:45:00;98168.66;;;22.23;55.39
52653;BME280;39353;42.864;12.014;2022-10-31T04:47:34;98175.39;;;22.23;55.56
52653;BME280;39353;42.864;12.014;2022-10-31T04:50:05;98174.16;;;22.23;55.56
52653;BME280;39353;42.864;12.014;2022-10-31T04:52:39;98176.52;;;22.23;55.53
52653;BME280;39353;42.864;12.014;2022-10-31T04:55:07;98171.94;;;22.23;55.49
52653;BME280;39353;42.864;12.014;2022-10-31T04:58:15;98170.38;;;22.23;55.49
52653;BME280;39353;42.864;12.014;2022-10-31T05:00:45;98166.09;;;22.22;55.55
52653;BME280;39353;42.864;12.014;2022-10-31T05:03:26;98166.65;;;22.22;55.62
52653;BME280;39353;42.864;12.014;2022-10-31T05:06:07;98172.27;;;22.22;55.60
52653;BME280;39353;42.864;12.014;2022-10-31T05:08:36;98170.23;;;22.22;55.57
52653;BME280;39353;42.864;12.014;2022-10-31T05:11:05;98165.92;;;22.22;55.50
52653;BME280;39353;42.864;12.014;2022-10-31T05:13:46;98169.77;;;22.22;55.51
52653;BME280;39353;42.864;12.014;2022-10-31T05:16:14;98172.52;;;22.22;55.48
52653;BME280;39353;42.864;12.014;2022-10-31T05:19:22;98172.82;;;22.22;55.44
52653;BME280;39353;42.864;12.014;2022-10-31T05:22:33;98173.16;;;22.21;55.53
52653;BME280;39353;42.864;12.014;2022-10-31T05:25:15;98174.05;;;22.21;55.58
52653;BME280;39353;42.864;12.014;2022-10-31T05:27:46;98177.38;;;22.21;55.47
52653;BME280;39353;42.864;12.014;2022-10-31T05:30:31;98173.55;;;22.21;55.55
52653;BME280;39353;42.864;12.014;2022-10-31T05:33:01;98175.61;;;22.20;55.68
52653;BME280;39353;42.864;12.014;2022-10-31T05:35:51;98173.55;;;22.21;55.48
52653;BME280;39353;42.864;12.014;2022-10-31T05:38:46;98178.71;;;22.20;55.56
52653;BME280;39353;42.864;12.014;2022-10-31T05:41:35;98182.04;;;22.20;55.58
52653;BME280;39353;42.864;12.014;2022-10-31T05:44:19;98182.44;;;22.20;55.65
52653;BME280;39353;42.864;12.014;2022-10-31T05:47:12;98184.77;;;22.20;55.70
52653;BME280;39353;42.864;12.014;2022-10-31T05:50:11;98184.64;;;22.20;55.69
52653;BME280;39353;42.864;12.014;2022-10-31T05:52:40;98186.38;;;22.19;55.54
52653;BME280;39353;42.864;12.014;2022-10-31T05:55:15;98183.27;;;22.19;55.62
52653;BME280;39353;42.864;12.014;2022-10-31T05:58:08;98184.58;;;22.18;55.50
52653;BME280;39353;42.864;12.014;2022-10-31T06:00:50;98190.50;;;22.18;55.53
52653;BME280;39353;42.864;12.014;2022-10-31T06:03:32;98189.54;;;22.18;55.69
52653;BME280;39353;42.864;12.014;2022-10-31T06:06:03;98189.16;;;22.18;55.62
52653;BME280;39353;42.864;12.014;2022-10-31T06:08:36;98187.89;;;22.18;55.57
52653;BME280;39353;42.864;12.014;2022-10-31T06:11:25;98190.63;;;22.18;55.59
52653;BME280;39353;42.864;12.014;2022-10-31T06:14:04;98191.42;;;22.19;55.48
52653;BME280;39353;42.864;12.014;2022-10-31T06:17:06;98191.38;;;22.18;55.47
52653;BME280;39353;42.864;12.014;2022-10-31T06:20:04;98192.89;;;22.19;55.45
52653;BME280;39353;42.864;12.014;2022-10-31T06:22:49;98193.06;;;22.19;55.46
52653;BME280;39353;42.864;12.014;2022-10-31T06:25:16;98197.52;;;22.20;55.53
52653;BME280;39353;42.864;12.014;2022-10-31T06:27:49;98200.30;;;22.21;55.44
52653;BME280;39353;42.864;12.014;2022-10-31T06:30:30;98200.09;;;22.21;55.48
52653;BME280;39353;42.864;12.014;2022-10-31T06:33:04;98202.90;;;22.22;55.62
52653;BME280;39353;42.864;12.014;2022-10-31T06:35:47;98198.82;;;22.23;55.53
52653;BME280;39353;42.864;12.014;2022-10-31T06:38:16;98204.23;;;22.23;55.51
52653;BME280;39353;42.864;12.014;2022-10-31T06:40:43;98206.13;;;22.24;55.46
52653;BME280;39353;42.864;12.014;2022-10-31T06:44:03;98208.14;;;22.24;55.52
52653;BME280;39353;42.864;12.014;2022-10-31T06:47:02;98211.13;;;22.24;55.52
52653;BME280;39353;42.864;12.014;2022-10-31T06:49:58;98222.13;;;22.25;55.53
52653;BME280;39353;42.864;12.014;2022-10-31T06:52:25;98220.95;;;22.26;55.59
52653;BME280;39353;42.864;12.014;2022-10-31T06:55:07;98223.94;;;22.27;55.56
52653;BME280;39353;42.864;12.014;2022-10-31T06:57:34;98226.45;;;22.28;55.43
52653;BME280;39353;42.864;12.014;2022-10-31T07:00:03;98230.06;;;22.30;55.44
52653;BME280;39353;42.864;12.014;2022-10-31T07:05:24;98237.38;;;22.32;55.57
52653;BME280;39353;42.864;12.014;2022-10-31T07:07:56;98241.33;;;22.32;55.39
52653;BME280;39353;42.864;12.014;2022-10-31T07:10:39;98242.97;;;22.32;55.76
52653;BME280;39353;42.864;12.014;2022-10-31T07:13:14;98248.05;;;22.34;55.52
52653;BME280;39353;42.864;12.014;2022-10-31T07:16:01;98252.15;;;22.37;55.47
52653;BME280;39353;42.864;12.014;2022-10-31T07:18:29;98253.66;;;22.38;55.49
52653;BME280;39353;42.864;12.014;2022-10-31T07:20:56;98256.64;;;22.38;55.33
52653;BME280;39353;42.864;12.014;2022-10-31T07:23:24;98255.39;;;22.38;55.11
52653;BME280;39353;42.864;12.014;2022-10-31T07:26:24;98253.02;;;22.35;54.92
52653;BME280;39353;42.864;12.014;2022-10-31T07:28:52;98257.20;;;22.36;54.81
52653;BME280;39353;42.864;12.014;2022-10-31T07:31:36;98258.48;;;22.36;54.81
52653;BME280;39353;42.864;12.014;2022-10-31T07:34:23;98260.75;;;22.37;54.97
52653;BME280;39353;42.864;12.014;2022-10-31T07:36:56;98262.20;;;22.38;54.98
52653;BME280;39353;42.864;12.014;2022-10-31T07:39:37;98268.58;;;22.39;55.13
52653;BME280;39353;42.864;12.014;2022-10-31T07:42:05;98270.38;;;22.41;55.02
52653;BME280;39353;42.864;12.014;2022-10-31T07:44:34;98272.88;;;22.43;54.99
52653;BME280;39353;42.864;12.014;2022-10-31T07:48:05;98269.13;;;22.43;54.98
52653;BME280;39353;42.864;12.014;2022-10-31T07:51:22;98269.56;;;22.46;54.97
52653;BME280;39353;42.864;12.014;2022-10-31T07:54:28;98270.95;;;22.46;54.85
52653;BME280;39353;42.864;12.014;2022-10-31T07:57:09;98270.27;;;22.46;54.87
52653;BME280;39353;42.864;12.014;2022-10-31T07:59:37;98274.05;;;22.46;54.75
52653;BME280;39353;42.864;12.014;2022-10-31T08:02:07;98271.23;;;22.47;54.05
52653;BME280;39353;42.864;12.014;2022-10-31T08:04:48;98268.36;;;22.11;47.65
52653;BME280;39353;42.864;12.014;2022-10-31T08:07:48;98270.70;;;21.94;50.23
52653;BME280;39353;42.864;12.014;2022-10-31T08:10:22;98268.54;;;21.93;50.76
52653;BME280;39353;42.864;12.014;2022-10-31T08:13:12;98268.17;;;21.92;50.47
52653;BME280;39353;42.864;12.014;2022-10-31T08:15:44;98264.14;;;21.89;49.92
52653;BME280;39353;42.864;12.014;2022-10-31T08:18:32;98262.36;;;21.83;50.22
52653;BME280;39353;42.864;12.014;2022-10-31T08:20:59;98259.59;;;21.80;50.22
52653;BME280;39353;42.864;12.014;2022-10-31T08:23:27;98258.30;;;21.76;50.09
52653;BME280;39353;42.864;12.014;2022-10-31T08:25:54;98259.05;;;21.74;50.26
52653;BME280;39353;42.864;12.014;2022-10-31T08:28:23;98259.05;;;21.74;50.28
52653;BME280;39353;42.864;12.014;2022-10-31T08:31:05;98258.23;;;21.67;49.12
52653;BME280;39353;42.864;12.014;2022-10-31T08:33:55;98254.61;;;21.52;49.40
52653;BME280;39353;42.864;12.014;2022-10-31T08:37:09;98260.28;;;21.48;49.85
52653;BME280;39353;42.864;12.014;2022-10-31T08:39:55;98259.55;;;21.49;49.13
52653;BME280;39353;42.864;12.014;2022-10-31T08:42:35;98255.26;;;21.37;48.75
52653;BME280;39353;42.864;12.014;2022-10-31T08:45:04;98255.56;;;21.26;49.40
52653;BME280;39353;42.864;12.014;2022-10-31T08:47:46;98253.91;;;21.20;49.84
52653;BME280;39353;42.864;12.014;2022-10-31T08:50:14;98255.17;;;21.14;49.69
52653;BME280;39353;42.864;12.014;2022-10-31T08:52:46;98252.81;;;21.08;49.97
52653;BME280;39353;42.864;12.014;2022-10-31T08:55:27;98253.55;;;21.04;50.06
52653;BME280;39353;42.864;12.014;2022-10-31T08:58:11;98254.33;;;21.11;50.47
52653;BME280;39353;42.864;12.014;2022-10-31T09:00:46;98256.52;;;21.15;50.23
52653;BME280;39353;42.864;12.014;2022-10-31T09:03:24;98256.87;;;20.84;49.35
52653;BME280;39353;42.864;12.014;2022-10-31T09:06:01;98256.70;;;20.70;49.79
52653;BME280;39353;42.864;12.014;2022-10-31T09:08:43;98258.77;;;20.82;50.22
52653;BME280;39353;42.864;12.014;2022-10-31T09:11:25;98260.41;;;20.96;50.63
52653;BME280;39353;42.864;12.014;2022-10-31T09:14:24;98258.06;;;21.07;50.62
52653;BME280;39353;42.864;12.014;2022-10-31T09:17:34;98260.85;;;21.25;51.03
52653;BME280;39353;42.864;12.014;2022-10-31T09:20:37;98261.63;;;21.41;50.96
52653;BME280;39353;42.864;12.014;2022-10-31T09:23:25;98267.26;;;21.54;51.15
52653;BME280;39353;42.864;12.014;2022-10-31T09:26:06;98265.79;;;21.65;50.90
52653;BME280;39353;42.864;12.014;2022-10-31T09:29:02;98265.23;;;21.73;50.49
52653;BME280;39353;42.864;12.014;2022-10-31T09:31:29;98265.39;;;21.80;50.85
52653;BME280;39353;42.864;12.014;2022-10-31T09:34:40;98266.88;;;21.88;51.07
52653;BME280;39353;42.864;12.014;2022-10-31T09:37:24;98266.70;;;21.94;51.18
52653;BME280;39353;42.864;12.014;2022-10-31T09:40:09;98270.30;;;21.98;51.62
52653;BME280;39353;42.864;12.014;2022-10-31T09:42:51;98268.98;;;22.00;51.76
52653;BME280;39353;42.864;12.014;2022-10-31T09:51:43;98265.05;;;22.22;53.43
52653;BME280;39353;42.864;12.014;2022-10-31T09:54:44;98261.68;;;22.24;53.37
52653;BME280;39353;42.864;12.014;2022-10-31T09:57:19;98260.81;;;22.17;52.03
52653;BME280;39353;42.864;12.014;2022-10-31T10:00:05;98259.80;;;22.09;51.62
52653;BME280;39353;42.864;12.014;2022-10-31T10:03:02;98260.27;;;22.01;51.60
52653;BME280;39353;42.864;12.014;2022-10-31T10:06:01;98259.20;;;21.96;51.59
52653;BME280;39353;42.864;12.014;2022-10-31T10:08:47;98258.92;;;21.91;51.57
52653;BME280;39353;42.864;12.014;2022-10-31T10:15:28;98257.67;;;21.87;51.64
52653;BME280;39353;42.864;12.014;2022-10-31T10:18:32;98253.34;;;21.86;51.61
52653;BME280;39353;42.864;12.014;2022-10-31T10:24:47;98250.72;;;21.83;51.38
52653;BME280;39353;42.864;12.014;2022-10-31T10:28:06;98250.98;;;21.81;51.30
52653;BME280;39353;42.864;12.014;2022-10-31T10:31:10;98246.65;;;21.78;51.21
52653;BME280;39353;42.864;12.014;2022-10-31T10:39:50;98246.58;;;21.78;51.05
52653;BME280;39353;42.864;12.014;2022-10-31T10:42:20;98246.86;;;21.77;50.86
52653;BME280;39353;42.864;12.014;2022-10-31T10:45:17;98248.54;;;21.77;50.99
52653;BME280;39353;42.864;12.014;2022-10-31T10:51:15;98246.02;;;21.75;50.67
52653;BME280;39353;42.864;12.014;2022-10-31T10:57:26;98245.22;;;21.78;50.64
52653;BME280;39353;42.864;12.014;2022-10-31T11:00:03;98244.30;;;21.80;50.86
52653;BME280;39353;42.864;12.014;2022-10-31T11:02:52;98238.85;;;21.87;51.62
52653;BME280;39353;42.864;12.014;2022-10-31T11:05:40;98240.98;;;22.00;53.43
52653;BME280;39353;42.864;12.014;2022-10-31T11:08:33;98236.80;;;22.12;55.09
52653;BME280;39353;42.864;12.014;2022-10-31T11:14:12;98237.69;;;22.37;56.83
52653;BME280;39353;42.864;12.014;2022-10-31T11:17:19;98231.94;;;22.45;56.19
52653;BME280;39353;42.864;12.014;2022-10-31T11:20:23;98230.11;;;22.49;55.75
52653;BME280;39353;42.864;12.014;2022-10-31T11:23:21;98225.90;;;22.52;55.61
52653;BME280;39353;42.864;12.014;2022-10-31T11:26:16;98227.20;;;22.52;55.67
52653;BME280;39353;42.864;12.014;2022-10-31T11:29:01;98221.13;;;22.56;56.55
52653;BME280;39353;42.864;12.014;2022-10-31T11:31:35;98219.13;;;22.58;56.34
52653;BME280;39353;42.864;12.014;2022-10-31T11:34:11;98215.38;;;22.60;56.41
52653;BME280;39353;42.864;12.014;2022-10-31T11:36:44;98215.17;;;22.64;56.57
52653;BME280;39353;42.864;12.014;2022-10-31T11:39:25;98211.20;;;22.67;56.63
52653;BME280;39353;42.864;12.014;2022-10-31T11:42:06;98211.73;;;22.69;56.75
52653;BME280;39353;42.864;12.014;2022-10-31T11:44:51;98208.70;;;22.70;56.27
52653;BME280;39353;42.864;12.014;2022-10-31T11:47:34;98207.85;;;22.68;55.76
52653;BME280;39353;42.864;12.014;2022-10-31T11:50:27;98205.17;;;22.68;56.14
52653;BME280;39353;42.864;12.014;2022-10-31T11:53:28;98204.75;;;22.70;56.45
52653;BME280;39353;42.864;12.014;2022-10-31T11:56:10;98205.02;;;22.73;56.45
52653;BME280;39353;42.864;12.014;2022-10-31T11:59:03;98204.92;;;22.75;56.18
52653;BME280;39353;42.864;12.014;2022-10-31T12:01:52;98199.14;;;22.77;55.87
52653;BME280;39353;42.864;12.014;2022-10-31T12:04:41;98199.04;;;22.79;55.48
52653;BME280;39353;42.864;12.014;2022-10-31T12:07:24;98190.06;;;22.80;55.08
52653;BME280;39353;42.864;12.014;2022-10-31T12:10:11;98184.17;;;22.80;54.79
52653;BME280;39353;42.864;12.014;2022-10-31T12:15:36;98175.78;;;22.77;53.95
52653;BME280;39353;42.864;12.014;2022-10-31T12:18:36;98174.86;;;22.76;53.63
52653;BME280;39353;42.864;12.014;2022-10-31T12:21:44;98170.52;;;22.75;53.34
52653;BME280;39353;42.864;12.014;2022-10-31T12:44:17;98158.46;;;22.74;51.68
52653;BME280;39353;42.864;12.014;2022-10-31T12:50:19;98153.96;;;22.72;51.62
52653;BME280;39353;42.864;12.014;2022-10-31T12:56:25;98149.86;;;22.69;51.60
52653;BME280;39353;42.864;12.014;2022-10-31T12:59:40;98146.64;;;22.68;51.49
52653;BME280;39353;42.864;12.014;2022-10-31T13:05:23;98143.83;;;22.71;51.87
52653;BME280;39353;42.864;12.014;2022-10-31T13:08:06;98142.21;;;22.74;51.77
52653;BME280;39353;42.864;12.014;2022-10-31T13:10:48;98142.27;;;22.76;51.53
52653;BME280;39353;42.864;12.014;2022-10-31T13:13:53;98141.98;;;22.80;51.49
52653;BME280;39353;42.864;12.014;2022-10-31T13:16:42;98143.45;;;22.83;50.49
52653;BME280;39353;42.864;12.014;2022-10-31T13:22:29;98140.08;;;22.83;49.90
52653;BME280;39353;42.864;12.014;2022-10-31T13:25:22;98137.21;;;22.84;49.78
52653;BME280;39353;42.864;12.014;2022-10-31T13:28:27;98138.80;;;22.84;49.13
52653;BME280;39353;42.864;12.014;2022-10-31T13:31:09;98133.93;;;22.83;48.89
52653;BME280;39353;42.864;12.014;2022-10-31T13:33:46;98131.64;;;22.81;49.33
52653;BME280;39353;42.864;12.014;2022-10-31T13:36:39;98129.07;;;22.80;49.03
52653;BME280;39353;42.864;12.014;2022-10-31T13:45:52;98123.45;;;22.83;47.30
52653;BME280;39353;42.864;12.014;2022-10-31T13:48:37;98124.80;;;22.82;47.27
52653;BME280;39353;42.864;12.014;2022-10-31T13:51:30;98126.65;;;22.83;47.40
52653;BME280;39353;42.864;12.014;2022-10-31T13:54:31;98127.12;;;22.87;47.62
52653;BME280;39353;42.864;12.014;2022-10-31T13:57:00;98126.31;;;22.89;47.49
52653;BME280;39353;42.864;12.014;2022-10-31T13:59:36;98129.10;;;22.91;48.26
52653;BME280;39353;42.864;12.014;2022-10-31T14:02:15;98125.27;;;22.95;48.60
52653;BME280;39353;42.864;12.014;2022-10-31T14:08:20;98128.87;;;23.02;48.62
52653;BME280;39353;42.864;12.014;2022-10-31T14:11:04;98128.25;;;23.05;48.86
52653;BME280;39353;42.864;12.014;2022-10-31T14:13:48;98125.14;;;23.09;48.71
52653;BME280;39353;42.864;12.014;2022-10-31T14:16:34;98128.66;;;23.12;48.69
52653;BME280;39353;42.864;12.014;2022-10-31T14:19:08;98128.23;;;23.14;48.22
52653;BME280;39353;42.864;12.014;2022-10-31T14:21:43;98129.47;;;23.16;48.70
52653;BME280;39353;42.864;12.014;2022-10-31T14:30:15;98128.30;;;23.18;49.58
52653;BME280;39353;42.864;12.014;2022-10-31T14:33:18;98128.63;;;23.16;49.34
52653;BME280;39353;42.864;12.014;2022-10-31T14:36:16;98125.55;;;23.14;48.51
52653;BME280;39353;42.864;12.014;2022-10-31T14:48:23;98127.27;;;23.11;47.76
52653;BME280;39353;42.864;12.014;2022-10-31T14:50:57;98129.01;;;23.06;47.75
52653;BME280;39353;42.864;12.014;2022-10-31T14:53:52;98128.45;;;23.03;47.32
52653;BME280;39353;42.864;12.014;2022-10-31T14:56:39;98130.55;;;22.98;47.32
52653;BME280;39353;42.864;12.014;2022-10-31T14:59:16;98132.95;;;22.98;47.79
52653;BME280;39353;42.864;12.014;2022-10-31T15:01:59;98131.04;;;23.00;48.37
52653;BME280;39353;42.864;12.014;2022-10-31T15:04:30;98131.02;;;23.03;48.79
52653;BME280;39353;42.864;12.014;2022-10-31T15:07:17;98131.55;;;23.04;49.21
52653;BME280;39353;42.864;12.014;2022-10-31T15:09:59;98131.37;;;23.05;49.19
52653;BME280;39353;42.864;12.014;2022-10-31T15:12:32;98128.09;;;23.05;48.45
52653;BME280;39353;42.864;12.014;2022-10-31T15:15:20;98128.20;;;23.03;47.88
52653;BME280;39353;42.864;12.014;2022-10-31T15:18:04;98131.33;;;23.02;47.83
52653;BME280;39353;42.864;12.014;2022-10-31T15:20:43;98129.52;;;22.95;47.44
52653;BME280;39353;42.864;12.014;2022-10-31T15:23:22;98128.13;;;22.89;47.78
52653;BME280;39353;42.864;12.014;2022-10-31T15:25:58;98124.95;;;22.84;47.88
52653;BME280;39353;42.864;12.014;2022-10-31T15:28:27;98123.39;;;22.80;48.01
52653;BME280;39353;42.864;12.014;2022-10-31T15:31:16;98122.88;;;22.75;48.17
52653;BME280;39353;42.864;12.014;2022-10-31T15:33:48;98121.19;;;22.72;48.64
52653;BME280;39353;42.864;12.014;2022-10-31T15:36:23;98123.11;;;22.69;48.60
52653;BME280;39353;42.864;12.014;2022-10-31T15:39:12;98116.48;;;22.66;48.70
52653;BME280;39353;42.864;12.014;2022-10-31T15:41:56;98122.40;;;22.64;48.90
52653;BME280;39353;42.864;12.014;2022-10-31T15:44:36;98121.30;;;22.64;49.12
52653;BME280;39353;42.864;12.014;2022-10-31T15:47:23;98121.48;;;22.67;49.46
52653;BME280;39353;42.864;12.014;2022-10-31T15:49:57;98122.84;;;22.70;49.77
52653;BME280;39353;42.864;12.014;2022-10-31T15:55:26;98124.36;;;22.74;50.01
52653;BME280;39353;42.864;12.014;2022-10-31T15:58:00;98126.47;;;22.75;50.12
52653;BME280;39353;42.864;12.014;2022-10-31T16:00:35;98127.69;;;22.75;50.38
52653;BME280;39353;42.864;12.014;2022-10-31T16:03:22;98127.65;;;22.74;50.58
52653;BME280;39353;42.864;12.014;2022-10-31T16:06:05;98128.59;;;22.73;50.74